Time;durP1;ratioP1;P1;durP2;ratioP2;P2;SDS_P1;SDS_P2;PMS_P1;PMS_P2;Temp;Humidity;BMP_temperature;BMP_pressure;BME280_temperature;BME280_humidity;BME280_pressure;Samples;Min_cycle;Max_cycle;Signal;HPM_P1;HPM_P2
2021/01/12 00:01:14;;;;;;;7.63;6.82;;;6.50;99.90;;;;;;5091771;28;20197;-78
2021/01/12 00:03:41;;;;;;;8.07;7.28;;;6.50;99.90;;;;;;5079233;28;20199;-78
2021/01/12 00:06:07;;;;;;;8.90;8.00;;;6.50;99.90;;;;;;5074322;28;20344;-79
2021/01/12 00:08:34;;;;;;;8.68;7.35;;;6.50;99.90;;;;;;5076947;28;20190;-78
2021/01/12 00:11:01;;;;;;;7.13;6.53;;;6.50;99.90;;;;;;5071509;28;20205;-78
2021/01/12 00:13:27;;;;;;;9.15;6.55;;;6.50;99.90;;;;;;5073150;28;20232;-78
2021/01/12 00:15:53;;;;;;;10.88;7.95;;;6.50;99.90;;;;;;5078349;28;20202;-79
2021/01/12 00:18:20;;;;;;;8.35;7.15;;;6.50;99.90;;;;;;5076768;28;20190;-77
2021/01/12 00:20:46;;;;;;;9.05;7.00;;;6.50;99.90;;;;;;5093193;28;20201;-76
2021/01/12 00:23:12;;;;;;;11.73;7.78;;;6.50;99.90;;;;;;5092944;28;20198;-77
2021/01/12 00:25:38;;;;;;;11.55;6.88;;;6.60;99.90;;;;;;5085700;28;20208;-77
2021/01/12 00:28:06;;;;;;;13.45;7.53;;;6.50;99.90;;;;;;5080351;28;20205;-76
2021/01/12 00:30:32;;;;;;;7.28;6.57;;;6.50;99.90;;;;;;5073303;28;20287;-76
2021/01/12 00:32:58;;;;;;;8.05;7.25;;;6.50;99.90;;;;;;5081754;28;20209;-76
2021/01/12 00:35:24;;;;;;;11.57;7.82;;;6.60;99.90;;;;;;5083817;28;20208;-76
2021/01/12 00:37:51;;;;;;;7.95;6.93;;;6.50;99.90;;;;;;5088575;28;20240;-76
2021/01/12 00:40:17;;;;;;;7.68;6.88;;;6.60;99.90;;;;;;5076960;28;20202;-76
2021/01/12 00:42:43;;;;;;;9.98;7.82;;;6.60;99.90;;;;;;5072530;28;20198;-76
2021/01/12 00:45:11;;;;;;;9.73;8.77;;;6.50;99.90;;;;;;5072491;28;20198;-75
2021/01/12 00:47:38;;;;;;;11.30;6.95;;;6.50;99.90;;;;;;5072096;28;20821;-78
2021/01/12 00:50:05;;;;;;;9.95;7.80;;;6.50;99.90;;;;;;5082744;28;20201;-76
2021/01/12 00:52:31;;;;;;;7.90;7.10;;;6.50;99.90;;;;;;5092230;28;20228;-76
2021/01/12 00:54:58;;;;;;;7.38;6.68;;;6.60;99.90;;;;;;5089770;28;20648;-76
2021/01/12 00:57:24;;;;;;;7.70;7.00;;;6.60;99.90;;;;;;5077271;28;20918;-76
2021/01/12 00:59:50;;;;;;;10.88;7.55;;;6.60;99.90;;;;;;5080310;28;20194;-76
2021/01/12 01:02:17;;;;;;;8.85;7.40;;;6.50;99.90;;;;;;5072240;28;20209;-76
2021/01/12 01:04:44;;;;;;;8.25;7.45;;;6.60;99.90;;;;;;5072358;28;20202;-76
2021/01/12 01:07:10;;;;;;;10.68;8.23;;;6.60;99.90;;;;;;5088691;28;20193;-77
2021/01/12 01:09:37;;;;;;;8.95;8.02;;;6.60;99.90;;;;;;5090400;28;20193;-77
2021/01/12 01:12:03;;;;;;;8.20;7.03;;;6.60;99.90;;;;;;5075720;28;20210;-76
2021/01/12 01:14:30;;;;;;;8.98;8.10;;;6.60;99.90;;;;;;5071781;28;20205;-77
2021/01/12 01:16:56;;;;;;;12.45;8.00;;;6.50;99.90;;;;;;5085957;28;20711;-77
2021/01/12 01:19:23;;;;;;;10.15;7.97;;;6.50;99.90;;;;;;5088410;28;20224;-76
2021/01/12 01:21:49;;;;;;;11.00;7.25;;;6.50;99.90;;;;;;5092022;28;20664;-77
2021/01/12 01:24:16;;;;;;;10.20;8.00;;;6.50;99.90;;;;;;5080767;28;20645;-76
2021/01/12 01:26:42;;;;;;;8.02;6.20;;;6.60;99.90;;;;;;5071792;28;20226;-76
2021/01/12 01:29:08;;;;;;;10.63;8.80;;;6.60;99.90;;;;;;5072094;28;20194;-77
2021/01/12 01:31:36;;;;;;;7.90;7.10;;;6.60;99.90;;;;;;5071709;28;20218;-77
2021/01/12 01:34:02;;;;;;;8.60;7.15;;;6.50;99.90;;;;;;5071902;28;20259;-77
2021/01/12 01:36:29;;;;;;;7.57;6.50;;;6.50;99.90;;;;;;5075629;28;20198;-76
2021/01/12 01:38:55;;;;;;;9.73;8.63;;;6.60;99.90;;;;;;5084071;28;20202;-77
2021/01/12 01:41:22;;;;;;;8.32;7.45;;;6.60;99.90;;;;;;5073010;28;20194;-77
2021/01/12 01:43:48;;;;;;;8.85;6.43;;;6.60;99.90;;;;;;5071917;28;20546;-76
2021/01/12 01:46:15;;;;;;;8.35;7.32;;;6.60;99.90;;;;;;5081763;28;20534;-77
2021/01/12 01:48:41;;;;;;;7.32;6.57;;;6.70;99.90;;;;;;5072044;28;20201;-77
2021/01/12 01:51:08;;;;;;;10.90;7.18;;;6.60;99.90;;;;;;5089057;28;20194;-77
2021/01/12 01:53:36;;;;;;;9.20;8.20;;;6.60;99.90;;;;;;5089890;28;20210;-76
2021/01/12 01:56:04;;;;;;;8.75;7.28;;;6.70;99.90;;;;;;5081515;28;20202;-77
2021/01/12 01:58:30;;;;;;;7.80;6.50;;;6.60;99.90;;;;;;5080311;28;20635;-77
2021/01/12 02:00:57;;;;;;;9.45;8.52;;;6.70;99.90;;;;;;5080491;28;20193;-76
2021/01/12 02:03:29;;;;;;;8.90;7.40;;;6.60;99.90;;;;;;5090844;28;20190;-77
2021/01/12 02:06:00;;;;;;;9.48;7.10;;;6.60;99.90;;;;;;5078844;28;20331;-77
2021/01/12 02:08:33;;;;;;;6.90;6.30;;;6.60;99.90;;;;;;5076243;28;20205;-76
2021/01/12 02:11:01;;;;;;;7.82;7.03;;;6.60;99.90;;;;;;5093785;28;20194;-76
2021/01/12 02:13:31;;;;;;;7.90;6.25;;;6.60;99.90;;;;;;5087149;28;20221;-77
2021/01/12 02:16:00;;;;;;;16.45;7.38;;;6.70;99.90;;;;;;5095189;28;20201;-77
2021/01/12 02:18:32;;;;;;;6.60;5.95;;;6.70;99.90;;;;;;5095441;28;20198;-76
2021/01/12 02:21:00;;;;;;;7.38;6.00;;;6.70;99.90;;;;;;5086137;28;20699;-76
2021/01/12 02:23:33;;;;;;;6.47;5.78;;;6.70;99.90;;;;;;5082944;28;20191;-76
2021/01/12 02:26:00;;;;;;;10.05;6.95;;;6.70;99.90;;;;;;5074683;28;20198;-76
2021/01/12 02:28:27;;;;;;;6.80;5.57;;;6.70;99.90;;;;;;5075715;28;20190;-77
2021/01/12 02:30:53;;;;;;;8.00;6.63;;;6.70;99.90;;;;;;5080419;28;20193;-76
2021/01/12 02:33:19;;;;;;;7.90;5.60;;;6.70;99.90;;;;;;5094042;28;20215;-77
2021/01/12 02:35:49;;;;;;;6.90;5.93;;;6.70;99.90;;;;;;5094545;28;20255;-77
2021/01/12 02:38:15;;;;;;;5.97;5.45;;;6.70;99.90;;;;;;5087841;28;20221;-76
2021/01/12 02:40:41;;;;;;;6.88;6.07;;;6.70;99.90;;;;;;5092677;28;20197;-76
2021/01/12 02:43:08;;;;;;;7.30;5.25;;;6.80;99.90;;;;;;5087511;28;20191;-77
2021/01/12 02:45:35;;;;;;;7.85;5.85;;;6.70;99.90;;;;;;5074226;28;20198;-77
2021/01/12 02:48:01;;;;;;;6.90;5.75;;;6.70;99.90;;;;;;5074403;28;20202;-77
2021/01/12 02:50:28;;;;;;;7.00;6.07;;;6.70;99.90;;;;;;5093277;28;20189;-77
2021/01/12 02:52:54;;;;;;;8.15;6.20;;;6.70;99.90;;;;;;5093677;28;20205;-77
2021/01/12 02:55:20;;;;;;;6.43;5.43;;;6.70;99.90;;;;;;5080568;28;20267;-77
2021/01/12 02:57:47;;;;;;;5.35;4.30;;;6.80;99.90;;;;;;5074274;28;20197;-77
2021/01/12 03:00:16;;;;;;;7.35;5.70;;;6.80;99.90;;;;;;5075313;28;20194;-77
2021/01/12 03:02:43;;;;;;;6.28;4.80;;;6.80;99.90;;;;;;5083414;28;20251;-76
2021/01/12 03:05:10;;;;;;;6.47;4.90;;;6.80;99.90;;;;;;5093372;28;20295;-76
2021/01/12 03:07:36;;;;;;;4.63;4.10;;;6.80;99.90;;;;;;5094153;28;20197;-76
2021/01/12 03:10:04;;;;;;;5.80;5.20;;;6.80;99.90;;;;;;5091819;28;20190;-76
2021/01/12 03:12:30;;;;;;;5.40;4.90;;;6.80;99.90;;;;;;5090479;28;20676;-78
2021/01/12 03:14:56;;;;;;;4.70;3.83;;;6.80;99.90;;;;;;5073779;28;20202;-78
2021/01/12 03:17:23;;;;;;;6.43;4.22;;;6.80;99.90;;;;;;5090179;28;20630;-77
2021/01/12 03:19:50;;;;;;;5.22;4.72;;;6.70;99.90;;;;;;5092166;28;20525;-76
2021/01/12 03:22:16;;;;;;;5.85;4.63;;;6.80;99.90;;;;;;5087144;28;20194;-77
2021/01/12 03:24:42;;;;;;;5.70;4.80;;;6.80;99.90;;;;;;5073869;28;20209;-77
2021/01/12 03:27:09;;;;;;;5.10;4.60;;;6.80;99.90;;;;;;5080739;28;20201;-78
2021/01/12 03:29:35;;;;;;;4.40;4.00;;;6.80;99.90;;;;;;5092048;28;20630;-76
2021/01/12 03:32:01;;;;;;;5.60;5.00;;;6.80;99.90;;;;;;5073973;28;20225;-77
2021/01/12 03:34:29;;;;;;;5.55;4.68;;;6.80;99.90;;;;;;5073845;28;20202;-77
2021/01/12 03:36:55;;;;;;;5.18;4.10;;;6.90;99.90;;;;;;5076937;28;20238;-77
2021/01/12 03:39:21;;;;;;;4.50;4.10;;;6.80;99.90;;;;;;5090553;28;20200;-78
2021/01/12 03:41:47;;;;;;;4.82;4.32;;;6.80;99.90;;;;;;5073197;28;20626;-77
2021/01/12 03:44:14;;;;;;;4.50;3.72;;;6.80;99.90;;;;;;5091811;28;20258;-77
2021/01/12 03:46:40;;;;;;;4.90;4.03;;;6.80;99.90;;;;;;5093110;28;20541;-77
2021/01/12 03:49:07;;;;;;;3.97;3.58;;;6.90;99.90;;;;;;5087294;28;20216;-76
2021/01/12 03:51:34;;;;;;;4.20;3.90;;;6.90;99.90;;;;;;5072784;28;20206;-76
2021/01/12 03:54:00;;;;;;;4.35;3.60;;;6.90;99.90;;;;;;5073303;28;20199;-76
2021/01/12 03:56:26;;;;;;;7.07;4.00;;;6.90;99.90;;;;;;5073195;28;20198;-77
2021/01/12 03:58:53;;;;;;;4.13;3.13;;;6.90;99.90;;;;;;5073143;28;20190;-77
2021/01/12 04:01:19;;;;;;;3.70;3.28;;;6.80;99.90;;;;;;5082489;28;20531;-77
2021/01/12 04:03:45;;;;;;;3.75;3.30;;;6.90;99.90;;;;;;5079166;28;20186;-76
2021/01/12 04:06:13;;;;;;;4.07;3.78;;;6.80;99.90;;;;;;5082004;28;20193;-77
2021/01/12 04:08:41;;;;;;;4.05;3.65;;;6.90;99.90;;;;;;5091870;28;20245;-76
2021/01/12 04:11:07;;;;;;;3.75;3.45;;;6.80;99.90;;;;;;5092121;28;20258;-76
2021/01/12 04:13:34;;;;;;;3.28;3.00;;;6.80;99.90;;;;;;5090792;28;20665;-76
2021/01/12 04:16:01;;;;;;;3.38;3.08;;;6.80;99.90;;;;;;5093049;28;21070;-77
2021/01/12 04:18:28;;;;;;;4.07;3.35;;;6.90;99.90;;;;;;5093027;28;20204;-77
2021/01/12 04:20:54;;;;;;;4.40;3.53;;;6.90;99.90;;;;;;5091515;28;20194;-77
2021/01/12 04:23:20;;;;;;;3.00;2.70;;;6.90;99.90;;;;;;5084235;28;20198;-77
2021/01/12 04:25:47;;;;;;;3.88;3.33;;;6.90;99.90;;;;;;5072646;28;20201;-76
2021/01/12 04:28:14;;;;;;;3.50;3.20;;;6.90;99.90;;;;;;5072414;28;20212;-77
2021/01/12 04:30:40;;;;;;;3.53;3.22;;;6.90;99.90;;;;;;5072082;28;20198;-77
2021/01/12 04:33:06;;;;;;;2.70;2.50;;;6.90;99.90;;;;;;5083262;28;20209;-76
2021/01/12 04:35:32;;;;;;;3.42;2.95;;;6.90;99.90;;;;;;5092861;28;20197;-77
2021/01/12 04:37:59;;;;;;;3.10;2.80;;;7.00;99.90;;;;;;5088410;28;20239;-76
2021/01/12 04:40:26;;;;;;;4.90;3.75;;;6.90;99.90;;;;;;5072149;28;20197;-76
2021/01/12 04:42:55;;;;;;;4.00;3.20;;;6.90;99.90;;;;;;5089256;28;20193;-76
2021/01/12 04:45:21;;;;;;;2.70;2.40;;;6.90;99.90;;;;;;5092488;28;20203;-77
2021/01/12 04:47:47;;;;;;;3.72;3.30;;;6.90;99.90;;;;;;5077820;28;20203;-77
2021/01/12 04:50:14;;;;;;;2.95;2.50;;;6.90;99.90;;;;;;5072416;28;20206;-76
2021/01/12 04:52:44;;;;;;;2.45;2.25;;;7.00;99.90;;;;;;5075790;28;20683;-76
2021/01/12 04:55:12;;;;;;;3.33;2.70;;;6.90;99.90;;;;;;5087189;28;20213;-76
2021/01/12 04:57:38;;;;;;;3.63;3.30;;;6.90;99.90;;;;;;5092576;28;20209;-76
2021/01/12 05:00:11;;;;;;;2.97;2.42;;;7.00;99.90;;;;;;5082056;28;20194;-76
2021/01/12 05:02:38;;;;;;;2.60;2.40;;;7.00;99.90;;;;;;5076643;28;20182;-76
2021/01/12 05:05:06;;;;;;;3.00;2.67;;;7.00;99.90;;;;;;5079213;28;20190;-77
2021/01/12 05:07:34;;;;;;;4.25;2.60;;;7.00;99.90;;;;;;5075977;28;20193;-77
2021/01/12 05:10:00;;;;;;;2.17;1.98;;;7.00;99.90;;;;;;5092118;28;20266;-76
2021/01/12 05:12:28;;;;;;;3.60;2.30;;;7.00;99.90;;;;;;5086358;28;20208;-76
2021/01/12 05:14:58;;;;;;;3.35;3.05;;;7.00;99.90;;;;;;5081715;28;20208;-77
2021/01/12 05:17:29;;;;;;;2.63;2.40;;;7.00;99.90;;;;;;5091501;28;20198;-77
2021/01/12 05:19:56;;;;;;;3.05;2.72;;;7.10;99.90;;;;;;5090855;28;20705;-77
2021/01/12 05:22:26;;;;;;;2.67;2.03;;;7.00;99.90;;;;;;5081791;28;20197;-77
2021/01/12 05:25:19;;;;;;;4.00;2.63;;;7.10;99.90;;;;;;5072871;28;20201;-77
2021/01/12 05:27:39;;;;;;;2.30;2.08;;;7.00;99.90;;;;;;5071516;28;20233;-77
2021/01/12 05:30:09;;;;;;;3.72;2.50;;;7.10;99.90;;;;;;5071742;28;20275;-77
2021/01/12 05:32:39;;;;;;;2.35;2.15;;;7.00;99.90;;;;;;5090951;28;20636;-76
2021/01/12 05:35:07;;;;;;;2.75;2.42;;;7.00;99.90;;;;;;5091411;28;20197;-76
2021/01/12 05:37:34;;;;;;;2.67;2.47;;;7.10;99.90;;;;;;5091796;28;20225;-77
2021/01/12 05:40:02;;;;;;;2.45;2.25;;;7.10;99.90;;;;;;5074469;28;20202;-77
2021/01/12 05:42:30;;;;;;;2.60;2.40;;;7.10;99.90;;;;;;5071601;28;20213;-77
2021/01/12 05:44:56;;;;;;;2.08;1.83;;;7.10;99.90;;;;;;5081688;28;20197;-77
2021/01/12 05:47:23;;;;;;;2.63;2.33;;;7.10;99.90;;;;;;5094996;28;20189;-76
2021/01/12 05:49:52;;;;;;;2.40;2.15;;;7.10;99.90;;;;;;5094595;28;20197;-78
2021/01/12 05:52:20;;;;;;;2.55;2.05;;;7.10;99.90;;;;;;5096042;28;20702;-78
2021/01/12 05:55:00;;;;;;;3.50;2.35;;;7.10;99.90;;;;;;5094793;28;20186;-78
2021/01/12 05:57:29;;;;;;;2.20;1.80;;;7.10;99.90;;;;;;5095993;28;20182;-78
2021/01/12 06:00:02;;;;;;;2.65;2.45;;;7.10;99.90;;;;;;5093349;28;20250;-77
2021/01/12 06:02:31;;;;;;;2.70;1.90;;;7.10;99.90;;;;;;5082952;28;20187;-76
2021/01/12 06:04:59;;;;;;;3.70;2.85;;;7.10;99.90;;;;;;5075108;28;20704;-77
2021/01/12 06:07:26;;;;;;;2.55;2.35;;;7.20;99.90;;;;;;5087299;28;20215;-76
2021/01/12 06:09:55;;;;;;;2.03;1.88;;;7.20;99.90;;;;;;5084710;28;20198;-76
2021/01/12 06:12:25;;;;;;;1.73;1.60;;;7.20;99.90;;;;;;5075477;28;20235;-76
2021/01/12 06:14:52;;;;;;;2.00;1.88;;;7.10;99.90;;;;;;5077964;28;20198;-76
2021/01/12 06:17:19;;;;;;;1.98;1.88;;;7.20;99.90;;;;;;5095215;28;20216;-76
2021/01/12 06:19:47;;;;;;;2.00;1.80;;;7.20;99.90;;;;;;5081268;28;20680;-76
2021/01/12 06:22:23;;;;;;;2.05;1.85;;;7.20;99.90;;;;;;5089705;28;20201;-76
2021/01/12 06:24:59;;;;;;;1.92;1.75;;;7.20;99.90;;;;;;5094775;28;20239;-76
2021/01/12 06:27:28;;;;;;;1.90;1.80;;;7.20;99.90;;;;;;5084583;28;20209;-76
2021/01/12 06:29:57;;;;;;;1.90;1.75;;;7.20;99.90;;;;;;5074685;28;20225;-76
2021/01/12 06:32:25;;;;;;;2.30;1.83;;;7.20;99.90;;;;;;5074652;28;20218;-77
2021/01/12 06:34:53;;;;;;;2.00;1.75;;;7.20;99.90;;;;;;5075201;28;20198;-76
2021/01/12 06:37:21;;;;;;;1.90;1.80;;;7.20;99.90;;;;;;5082104;28;20236;-76
2021/01/12 06:39:49;;;;;;;1.80;1.70;;;7.30;99.90;;;;;;5092397;28;20238;-77
2021/01/12 06:42:19;;;;;;;1.88;1.60;;;7.20;99.90;;;;;;5093715;28;20190;-77
2021/01/12 06:44:49;;;;;;;2.33;1.65;;;7.30;99.90;;;;;;5075187;28;20198;-76
2021/01/12 06:47:17;;;;;;;1.85;1.38;;;7.30;99.90;;;;;;5074176;28;20689;-76
2021/01/12 06:49:44;;;;;;;2.65;1.73;;;7.30;99.90;;;;;;5074633;28;20213;-77
2021/01/12 06:52:12;;;;;;;1.92;1.73;;;7.30;99.90;;;;;;5093035;28;20278;-76
2021/01/12 06:54:42;;;;;;;2.50;2.10;;;7.30;99.90;;;;;;5076548;28;20194;-77
2021/01/12 06:57:09;;;;;;;1.95;1.73;;;7.30;99.90;;;;;;5090542;28;20200;-76
2021/01/12 06:59:40;;;;;;;1.70;1.60;;;7.30;99.90;;;;;;5081916;28;20198;-76
2021/01/12 07:02:20;;;;;;;1.58;1.25;;;7.40;99.90;;;;;;5078854;28;20185;-76
2021/01/12 07:04:58;;;;;;;1.95;1.70;;;7.30;99.90;;;;;;5076649;28;20200;-75
2021/01/12 07:07:27;;;;;;;1.88;1.77;;;7.30;99.90;;;;;;5074270;28;20205;-76
2021/01/12 07:09:55;;;;;;;1.40;1.30;;;7.30;99.90;;;;;;5074488;28;20194;-75
2021/01/12 07:12:24;;;;;;;1.77;1.67;;;7.30;99.90;;;;;;5082556;28;20220;-75
2021/01/12 07:14:52;;;;;;;3.92;2.20;;;7.40;99.90;;;;;;5091768;28;20257;-76
2021/01/12 07:17:29;;;;;;;2.05;1.85;;;7.40;99.90;;;;;;5094076;28;20208;-76
2021/01/12 07:20:11;;;;;;;2.10;1.90;;;7.40;99.90;;;;;;5094556;28;20197;-76
2021/01/12 07:22:40;;;;;;;1.80;1.65;;;7.40;99.90;;;;;;5077255;28;20624;-76
2021/01/12 07:25:09;;;;;;;2.10;2.00;;;7.40;99.90;;;;;;5090979;28;20239;-75
2021/01/12 07:27:36;;;;;;;1.98;1.60;;;7.30;99.90;;;;;;5073998;28;20198;-76
2021/01/12 07:30:08;;;;;;;2.63;1.60;;;7.50;99.90;;;;;;5074501;28;20204;-75
2021/01/12 07:32:37;;;;;;;2.00;1.90;;;7.40;99.90;;;;;;5073726;28;20221;-75
2021/01/12 07:35:07;;;;;;;1.92;1.73;;;7.40;99.90;;;;;;5075462;28;20209;-75
2021/01/12 07:37:37;;;;;;;3.15;2.65;;;7.40;99.90;;;;;;5093848;28;20233;-76
2021/01/12 07:40:06;;;;;;;1.77;1.67;;;7.40;99.90;;;;;;5092771;28;20622;-76
2021/01/12 07:42:34;;;;;;;1.80;1.48;;;7.40;99.90;;;;;;5073692;28;20345;-75
2021/01/12 07:45:00;;;;;;;1.50;1.40;;;7.50;99.90;;;;;;5073241;28;20209;-75
2021/01/12 07:47:27;;;;;;;1.60;1.50;;;7.40;99.90;;;;;;5079308;28;20201;-75
2021/01/12 07:49:54;;;;;;;2.13;1.90;;;7.40;99.90;;;;;;5073955;28;20266;-74
2021/01/12 07:52:21;;;;;;;1.88;1.50;;;7.40;99.90;;;;;;5073540;28;20542;-74
2021/01/12 07:54:48;;;;;;;1.40;1.23;;;7.40;99.90;;;;;;5077059;28;20621;-75
2021/01/12 07:57:15;;;;;;;1.95;1.48;;;7.40;99.90;;;;;;5077084;28;20210;-75
2021/01/12 07:59:43;;;;;;;1.85;1.75;;;7.40;99.90;;;;;;5078800;28;20208;-75
2021/01/12 08:02:10;;;;;;;1.48;1.38;;;7.50;99.90;;;;;;5073361;28;20259;-75
2021/01/12 08:04:38;;;;;;;2.33;1.63;;;7.50;99.90;;;;;;5073320;28;20233;-76
2021/01/12 08:07:05;;;;;;;1.95;1.85;;;7.50;99.90;;;;;;5082993;28;20194;-75
2021/01/12 08:09:31;;;;;;;4.85;1.50;;;7.50;99.90;;;;;;5093099;28;20206;-75
2021/01/12 08:12:01;;;;;;;2.58;2.35;;;7.50;99.90;;;;;;5080144;28;20209;-76
2021/01/12 08:14:27;;;;;;;2.97;1.73;;;7.50;99.90;;;;;;5092688;28;20202;-75
2021/01/12 08:16:56;;;;;;;1.80;1.70;;;7.50;99.90;;;;;;5091795;28;20270;-75
2021/01/12 08:19:23;;;;;;;2.25;1.77;;;7.50;99.90;;;;;;5073926;28;20198;-75
2021/01/12 08:21:50;;;;;;;2.85;2.15;;;7.50;99.90;;;;;;5072531;28;20213;-75
2021/01/12 08:24:20;;;;;;;2.30;1.73;;;7.50;99.90;;;;;;5079759;28;20538;-75
2021/01/12 08:26:48;;;;;;;1.60;1.50;;;7.50;99.90;;;;;;5092413;28;20193;-75
2021/01/12 08:29:15;;;;;;;1.60;1.42;;;7.50;99.90;;;;;;5085317;28;20198;-75
2021/01/12 08:31:47;;;;;;;1.67;1.58;;;7.50;99.90;;;;;;5072207;28;20252;-75
2021/01/12 08:34:19;;;;;;;1.98;1.80;;;7.50;99.90;;;;;;5072673;28;20210;-75
2021/01/12 08:36:48;;;;;;;1.70;1.60;;;7.50;99.90;;;;;;5081374;28;20217;-75
2021/01/12 08:39:15;;;;;;;2.08;1.90;;;7.50;99.90;;;;;;5086506;28;20194;-75
2021/01/12 08:41:42;;;;;;;2.03;1.83;;;7.60;99.90;;;;;;5091153;28;20692;-75
2021/01/12 08:44:12;;;;;;;2.10;1.90;;;7.60;99.90;;;;;;5092460;28;20201;-75
2021/01/12 08:46:38;;;;;;;2.25;2.00;;;7.60;99.90;;;;;;5084070;28;20282;-75
2021/01/12 08:49:05;;;;;;;1.83;1.50;;;7.50;99.90;;;;;;5072442;28;20228;-75
2021/01/12 08:51:33;;;;;;;2.15;1.30;;;7.60;99.90;;;;;;5072603;28;20600;-75
2021/01/12 08:54:00;;;;;;;2.50;1.67;;;7.60;99.90;;;;;;5075454;28;20263;-75
2021/01/12 08:56:27;;;;;;;1.80;1.70;;;7.60;99.90;;;;;;5088098;28;20205;-75
2021/01/12 08:59:03;;;;;;;1.77;1.67;;;7.60;99.90;;;;;;5073686;28;20322;-75
2021/01/12 09:01:31;;;;;;;1.77;1.67;;;7.70;99.90;;;;;;5072229;28;20201;-76
2021/01/12 09:04:05;;;;;;;1.63;1.52;;;7.60;99.90;;;;;;5074295;28;20194;-75
2021/01/12 09:06:33;;;;;;;2.13;1.48;;;7.70;99.90;;;;;;5073506;28;20194;-75
2021/01/12 09:09:15;;;;;;;1.58;1.30;;;7.60;99.90;;;;;;5091150;28;20209;-75
2021/01/12 09:11:46;;;;;;;1.90;1.67;;;7.60;99.90;;;;;;5090885;28;20185;-76
2021/01/12 09:14:13;;;;;;;1.98;1.60;;;7.60;99.90;;;;;;5071555;28;20561;-76
2021/01/12 09:16:42;;;;;;;1.75;1.42;;;7.70;99.90;;;;;;5090552;28;20201;-76
2021/01/12 09:19:18;;;;;;;1.75;1.42;;;7.70;99.90;;;;;;5078441;28;20658;-75
2021/01/12 09:21:45;;;;;;;1.52;1.42;;;7.70;99.90;;;;;;5072780;28;20586;-76
2021/01/12 09:24:19;;;;;;;1.60;1.50;;;7.70;99.90;;;;;;5087454;28;20193;-75
2021/01/12 09:26:45;;;;;;;2.55;1.50;;;7.70;99.90;;;;;;5073511;28;20213;-76
2021/01/12 09:29:12;;;;;;;1.58;1.45;;;7.70;99.90;;;;;;5082823;28;20205;-75
2021/01/12 09:31:43;;;;;;;1.58;1.48;;;7.70;99.90;;;;;;5071530;28;20205;-76
2021/01/12 09:34:10;;;;;;;1.60;1.50;;;7.70;99.90;;;;;;5071524;28;20314;-76
2021/01/12 09:36:36;;;;;;;1.45;1.10;;;7.70;99.90;;;;;;5085424;28;21384;-76
2021/01/12 09:39:11;;;;;;;1.65;1.55;;;7.70;99.90;;;;;;5089619;28;20212;-75
2021/01/12 09:41:38;;;;;;;1.55;1.45;;;7.70;99.90;;;;;;5077150;28;20228;-75
2021/01/12 09:44:05;;;;;;;1.50;1.35;;;7.80;99.90;;;;;;5083851;28;20202;-75
2021/01/12 09:46:31;;;;;;;1.63;1.50;;;7.80;99.90;;;;;;5074926;28;20198;-76
2021/01/12 09:48:58;;;;;;;1.90;1.33;;;7.70;99.90;;;;;;5073276;28;20201;-75
2021/01/12 09:51:25;;;;;;;1.35;1.25;;;7.80;99.90;;;;;;5086153;28;20189;-75
2021/01/12 09:53:51;;;;;;;1.80;1.50;;;7.70;99.90;;;;;;5078265;28;20217;-76
2021/01/12 09:56:20;;;;;;;1.50;1.25;;;7.80;99.90;;;;;;5075779;28;20193;-76
2021/01/12 09:58:48;;;;;;;1.50;1.23;;;7.80;99.90;;;;;;5071374;28;20208;-75
2021/01/12 10:01:15;;;;;;;1.70;1.52;;;7.70;99.90;;;;;;5072460;28;20258;-76
2021/01/12 10:03:41;;;;;;;1.60;1.40;;;7.70;99.90;;;;;;5087132;28;20194;-75
2021/01/12 10:06:08;;;;;;;1.77;1.10;;;7.70;99.90;;;;;;5081715;28;20204;-76
2021/01/12 10:08:34;;;;;;;2.10;1.40;;;7.80;99.90;;;;;;5091226;28;20535;-76
2021/01/12 10:11:03;;;;;;;1.23;1.13;;;7.80;99.90;;;;;;5089168;28;20198;-75
2021/01/12 10:13:30;;;;;;;1.30;1.20;;;7.80;99.90;;;;;;5071131;28;20226;-76
2021/01/12 10:15:56;;;;;;;1.40;1.30;;;7.80;99.90;;;;;;5080929;28;20529;-75
2021/01/12 10:18:23;;;;;;;1.75;1.45;;;7.80;99.90;;;;;;5090012;28;20201;-76
2021/01/12 10:20:49;;;;;;;2.00;1.73;;;7.90;99.90;;;;;;5077511;28;20198;-75
2021/01/12 10:23:15;;;;;;;1.52;1.10;;;7.90;99.90;;;;;;5073964;28;20189;-76
2021/01/12 10:25:42;;;;;;;1.40;1.30;;;7.90;99.90;;;;;;5076316;28;20201;-75
2021/01/12 10:28:08;;;;;;;1.58;1.45;;;7.90;99.90;;;;;;5073746;28;20641;-76
2021/01/12 10:30:36;;;;;;;1.50;1.25;;;7.90;99.90;;;;;;5078500;28;20230;-75
2021/01/12 10:33:02;;;;;;;1.70;1.40;;;7.90;99.90;;;;;;5078552;28;20215;-75
2021/01/12 10:35:28;;;;;;;1.48;1.08;;;7.90;99.90;;;;;;5090308;28;20205;-75
2021/01/12 10:37:54;;;;;;;1.65;1.40;;;8.00;99.90;;;;;;5084134;28;20241;-75
2021/01/12 10:40:22;;;;;;;1.70;1.60;;;8.00;99.90;;;;;;5079335;28;20194;-75
2021/01/12 10:42:49;;;;;;;1.45;1.33;;;8.00;99.90;;;;;;5077330;28;20201;-75
2021/01/12 10:45:15;;;;;;;1.33;1.17;;;8.00;99.90;;;;;;5074284;28;20199;-76
2021/01/12 10:47:43;;;;;;;1.67;1.52;;;8.00;99.90;;;;;;5076334;28;20570;-74
2021/01/12 10:50:12;;;;;;;1.45;1.33;;;8.00;99.90;;;;;;5080698;28;20204;-75
2021/01/12 10:52:39;;;;;;;1.35;1.25;;;8.00;99.90;;;;;;5084293;28;20217;-75
2021/01/12 10:55:07;;;;;;;1.50;1.20;;;8.00;99.90;;;;;;5074715;28;20209;-75
2021/01/12 10:57:33;;;;;;;1.30;1.20;;;8.00;99.90;;;;;;5073972;28;20218;-75
2021/01/12 10:59:59;;;;;;;1.40;1.10;;;8.00;99.90;;;;;;5093302;28;20738;-75
2021/01/12 11:02:30;;;;;;;1.65;1.55;;;8.10;99.90;;;;;;5090266;28;20189;-75
2021/01/12 11:04:57;;;;;;;1.63;1.40;;;8.00;99.90;;;;;;5093086;28;20629;-75
2021/01/12 11:07:24;;;;;;;1.20;1.10;;;8.00;99.90;;;;;;5092976;28;20634;-75
2021/01/12 11:09:50;;;;;;;1.58;1.48;;;8.00;99.90;;;;;;5094450;28;20242;-75
2021/01/12 11:12:17;;;;;;;1.40;1.30;;;8.10;99.90;;;;;;5084388;28;20264;-75
2021/01/12 11:14:44;;;;;;;2.05;1.30;;;8.10;99.90;;;;;;5073829;28;20597;-76
2021/01/12 11:17:12;;;;;;;1.77;1.42;;;8.10;99.90;;;;;;5079118;28;20202;-76
2021/01/12 11:19:38;;;;;;;1.50;1.20;;;8.10;99.90;;;;;;5078399;28;20201;-75
2021/01/12 11:22:06;;;;;;;1.48;1.10;;;8.10;99.90;;;;;;5083210;28;20202;-76
2021/01/12 11:24:32;;;;;;;1.08;0.95;;;8.10;99.90;;;;;;5075882;28;20194;-80
2021/01/12 11:26:58;;;;;;;1.23;0.90;;;8.10;99.90;;;;;;5073669;28;20721;-74
2021/01/12 11:29:25;;;;;;;2.58;1.10;;;8.10;99.90;;;;;;5073525;28;20198;-75
2021/01/12 11:31:51;;;;;;;1.65;1.00;;;8.10;99.90;;;;;;5087284;28;20532;-74
2021/01/12 11:34:17;;;;;;;1.65;1.30;;;8.10;99.90;;;;;;5075770;28;20217;-75
2021/01/12 11:36:46;;;;;;;4.45;1.50;;;8.10;99.90;;;;;;5077111;28;20235;-75
2021/01/12 11:39:15;;;;;;;1.10;0.90;;;8.10;99.90;;;;;;5076270;28;20190;-77
2021/01/12 11:41:46;;;;;;;1.17;1.08;;;8.10;99.90;;;;;;5072462;28;20208;-77
2021/01/12 11:44:12;;;;;;;1.33;0.95;;;8.20;99.90;;;;;;5072917;28;20191;-77
2021/01/12 11:46:39;;;;;;;1.30;1.20;;;8.20;99.90;;;;;;5072854;28;20202;-77
2021/01/12 11:49:05;;;;;;;1.15;1.05;;;8.20;99.90;;;;;;5073276;28;20199;-77
2021/01/12 11:51:36;;;;;;;2.17;1.02;;;8.10;99.90;;;;;;5073021;28;20198;-78
2021/01/12 11:54:03;;;;;;;2.72;1.27;;;8.20;99.90;;;;;;5072441;28;20218;-77
2021/01/12 11:56:30;;;;;;;1.42;1.23;;;8.20;99.90;;;;;;5072498;28;20209;-78
2021/01/12 11:58:57;;;;;;;6.88;1.60;;;8.20;99.90;;;;;;5072954;28;20217;-78
2021/01/12 12:01:24;;;;;;;2.45;1.15;;;8.20;99.90;;;;;;5072904;28;20198;-78
2021/01/12 12:03:50;;;;;;;3.25;1.10;;;8.30;99.90;;;;;;5076960;28;20253;-78
2021/01/12 12:06:16;;;;;;;3.80;2.55;;;8.30;99.90;;;;;;5079232;28;20217;-78
2021/01/12 12:08:43;;;;;;;1.70;1.00;;;8.20;99.90;;;;;;5073690;28;20810;-77
2021/01/12 12:11:09;;;;;;;1.75;1.15;;;8.20;99.90;;;;;;5093226;28;20541;-78
2021/01/12 12:13:40;;;;;;;1.50;1.10;;;8.30;99.90;;;;;;5087076;28;20213;-77
2021/01/12 12:16:07;;;;;;;1.92;1.15;;;8.30;99.90;;;;;;5089288;28;20232;-78
2021/01/12 12:18:34;;;;;;;1.15;1.05;;;8.30;99.90;;;;;;5091616;28;20507;-78
2021/01/12 12:21:00;;;;;;;1.15;0.93;;;8.30;99.90;;;;;;5092724;28;20198;-78
2021/01/12 12:23:27;;;;;;;2.08;1.10;;;8.30;99.90;;;;;;5088363;28;20199;-77
2021/01/12 12:25:53;;;;;;;1.73;1.25;;;8.30;99.90;;;;;;5083360;28;20212;-77
2021/01/12 12:28:20;;;;;;;2.05;1.23;;;8.30;99.90;;;;;;5081283;28;20201;-77
2021/01/12 12:30:47;;;;;;;1.30;1.15;;;8.30;99.90;;;;;;5087594;28;20197;-77
2021/01/12 12:33:13;;;;;;;1.33;1.10;;;8.20;99.90;;;;;;5081814;28;20218;-77
2021/01/12 12:35:39;;;;;;;1.50;1.40;;;8.20;99.90;;;;;;5074472;28;20201;-77
2021/01/12 12:38:06;;;;;;;1.98;1.10;;;8.20;99.90;;;;;;5074605;28;20272;-77
2021/01/12 12:40:32;;;;;;;2.10;1.10;;;8.20;99.90;;;;;;5072663;28;20202;-77
2021/01/12 12:42:58;;;;;;;1.45;0.77;;;8.20;99.90;;;;;;5071783;28;20220;-77
2021/01/12 12:45:24;;;;;;;1.33;0.95;;;8.20;99.90;;;;;;5071447;28;20659;-76
2021/01/12 12:47:52;;;;;;;2.15;1.15;;;8.30;99.90;;;;;;5085668;28;20194;-75
2021/01/12 12:50:18;;;;;;;1.10;0.80;;;8.20;99.90;;;;;;5092507;28;20280;-76
2021/01/12 12:52:44;;;;;;;1.63;1.05;;;8.30;99.90;;;;;;5091500;28;20649;-78
2021/01/12 12:55:13;;;;;;;1.10;1.00;;;8.30;99.90;;;;;;5084461;28;20684;-74
2021/01/12 12:57:39;;;;;;;1.38;1.00;;;8.20;99.90;;;;;;5087229;28;20538;-79